Bareilly — A8KG7 — position and weather

sailwx.info

Track history (hours):
 
Tides and Currents Weather Stations Pressure Air Temp Water Temp Dewpoint Dewpoint Depression Visibility Wind Speed Wind Dir Waves Ship Positions

Bareilly

Last reported at 2014-Sep-22 08:09 UTC. Time now 2014-Sep-23 04:20 UTC.
Position N 50°24' W 000°29'.

Length 243 m; draft 14.8 m.

Type: Tanker. MMSI: 636013054.

Date/timePositionNaut miles runAvg speedWind from/ knotsBaromVisibWave heightAir tempDewpointWater temp
2014-Sep-22 08:09N 50°24' W 000°29'711.1
2014-Sep-22 07:30N 50°26' W 000°18'1111.5
2014-Sep-22 06:33N 50°29' W 000°01'1212.2
2014-Sep-22 05:33N 50°33' E 000°17'1313.5
2014-Sep-22 04:33N 50°36' E 000°38'1414.3
2014-Sep-22 03:33N 50°44' E 000°56'1514.2
2014-Sep-22 02:28N 50°53' E 001°16'1213.3
2014-Sep-22 01:33N 51°02' E 001°29'1211.8
2014-Sep-22 00:33N 51°11' E 001°42'1111.3
2014-Sep-21 23:33N 51°20' E 001°52'1211.9
2014-Sep-21 22:33N 51°30' E 002°02'1312.7
2014-Sep-21 21:33N 51°40' E 002°14'42812.6
2014-Sep-20 11:33N 57°37' E 009°03'1312.4
2014-Sep-20 10:30N 57°43' E 009°24'1212.5
2014-Sep-20 09:31N 57°48' E 009°46'1312.8
2014-Sep-20 08:32N 57°50' E 010°09'1413.9
2014-Sep-20 07:33N 57°50' E 010°34'1010.3
2014-Sep-20 06:33N 57°43' E 010°49'5 4.4
2014-Sep-20 05:31N 57°40' E 010°42'0 0.1
2014-Sep-20 04:31N 57°40' E 010°42'0 0.1
2014-Sep-20 03:31N 57°40' E 010°43'0 0.2
2014-Sep-20 02:31N 57°40' E 010°42'0 0.0
2014-Sep-20 01:31N 57°40' E 010°42'0 0.1
2014-Sep-20 00:33N 57°40' E 010°42'6 6.0
2014-Sep-19 23:33N 57°37' E 010°51'1212.4
2014-Sep-19 22:33N 57°31' E 011°12'1211.7
2014-Sep-19 21:33N 57°23' E 011°28'1212.3
2014-Sep-19 20:33N 57°12' E 011°36'1212.3
2014-Sep-19 19:33N 57°00' E 011°44'1211.7
2014-Sep-19 18:33N 56°49' E 011°51'10 9.6
2014-Sep-19 17:33N 56°40' E 011°48'1211.7
2014-Sep-19 16:33N 56°30' E 011°37'1211.7
2014-Sep-19 15:33N 56°20' E 011°26'1211.6
2014-Sep-19 14:33N 56°10' E 011°15'1212.0
2014-Sep-19 13:32N 55°59' E 011°03'1111.4
2014-Sep-19 12:33N 55°52' E 010°49'1211.9
2014-Sep-19 11:30N 55°39' E 010°47'3110.5
2014-Sep-19 08:31N 55°09' E 010°59'1111.4
2014-Sep-19 07:33N 54°58' E 010°57'1212.0
2014-Sep-19 06:33N 54°47' E 010°49'1010.0
2014-Sep-19 05:33N 54°38' E 010°56'1212.0
2014-Sep-19 04:33N 54°34' E 011°16'1212.1
2014-Sep-19 03:33N 54°29' E 011°34'1212.0
2014-Sep-19 02:33N 54°26' E 011°54'1110.8
2014-Sep-19 01:33N 54°29' E 012°12'9 9.1
2014-Sep-19 00:33N 54°37' E 012°19'5 5.0
2014-Sep-18 23:33N 54°40' E 012°26'5 5.1
2014-Sep-18 22:33N 54°42' E 012°33'5 5.1
2014-Sep-18 21:33N 54°45' E 012°41'5 5.1
2014-Sep-18 20:33N 54°47' E 012°49'8 8.2
2014-Sep-18 19:33N 54°51' E 013°01'1212.4
2014-Sep-18 18:33N 54°55' E 013°22'1212.5
2014-Sep-18 17:33N 54°59' E 013°42'1312.5
2014-Sep-18 16:33N 55°03' E 014°03'1212.5
2014-Sep-18 15:34N 55°13' E 014°17'1312.8
2014-Sep-18 14:33N 55°23' E 014°31'1212.3
2014-Sep-18 13:33N 55°30' E 014°48'1212.4
2014-Sep-18 12:33N 55°36' E 015°08'1412.4
2014-Sep-18 11:25N 55°40' E 015°32'1112.4
2014-Sep-18 10:34N 55°43' E 015°50'1312.6
2014-Sep-18 09:34N 55°46' E 016°12'1312.6
2014-Sep-18 08:33N 55°49' E 016°33'1312.5
2014-Sep-18 07:33N 55°52' E 016°55'1212.3
2014-Sep-18 06:33N 55°55' E 017°16'1312.5
2014-Sep-18 05:33N 55°58' E 017°38'1312.5
2014-Sep-18 04:31N 56°04' E 017°58'1212.5
2014-Sep-18 03:31N 56°11' E 018°16'1212.5
2014-Sep-18 02:33N 56°18' E 018°34'1312.1
2014-Sep-18 01:31N 56°27' E 018°51'1212.3
2014-Sep-18 00:33N 56°37' E 019°02'1312.7
2014-Sep-17 23:32N 56°44' E 019°22'1312.8
2014-Sep-17 22:32N 56°51' E 019°41'1212.7
2014-Sep-17 21:33N 56°58' E 020°00'1712.9
2014-Sep-17 20:13N 57°08' E 020°26'  
2014-Sep-15 09:28N 59°34' E 022°50'1213.6
2014-Sep-15 08:33N 59°37' E 023°13'1313.4
2014-Sep-15 07:33N 59°41' E 023°38'1313.2
2014-Sep-15 06:33N 59°44' E 024°04'1313.4
2014-Sep-15 05:33N 59°48' E 024°29'1313.4
2014-Sep-15 04:33N 59°50' E 024°55'1413.5
2014-Sep-15 03:33N 59°53' E 025°22'1613.4
2014-Sep-15 02:22N 59°56' E 025°53'1113.2
2014-Sep-15 01:33N 59°59' E 026°14'1313.0
2014-Sep-15 00:33N 60°01' E 026°39'1312.7
2014-Sep-14 23:33N 60°00' E 027°04'1313.3
2014-Sep-14 22:33N 60°07' E 027°27'1413.1
2014-Sep-14 21:29N 60°15' E 027°50'1213.0
2014-Sep-14 20:33N 60°25' E 028°05'9 8.6
2014-Sep-14 19:33N 60°28' E 028°21'  
Track history (hours):
 
Tides and Currents Weather Stations Pressure Air Temp Water Temp Dewpoint Dewpoint Depression Visibility Wind Speed Wind Dir Waves Ship Positions

Bareilly

Last reported at 2014-Sep-22 08:09 UTC. Time now 2014-Sep-23 04:20 UTC.
Position N 50°24' W 000°29'.

Length 243 m; draft 14.8 m.

Type: Tanker. MMSI: 636013054.

Date/timePositionNaut miles runAvg speedWind from/ knotsBaromVisibWave heightAir tempDewpointWater temp
2014-Sep-22 08:09N 50°24' W 000°29'711.1
2014-Sep-22 07:30N 50°26' W 000°18'1111.5
2014-Sep-22 06:33N 50°29' W 000°01'1212.2
2014-Sep-22 05:33N 50°33' E 000°17'1313.5
2014-Sep-22 04:33N 50°36' E 000°38'1414.3
2014-Sep-22 03:33N 50°44' E 000°56'1514.2
2014-Sep-22 02:28N 50°53' E 001°16'1213.3
2014-Sep-22 01:33N 51°02' E 001°29'1211.8
2014-Sep-22 00:33N 51°11' E 001°42'1111.3
2014-Sep-21 23:33N 51°20' E 001°52'1211.9
2014-Sep-21 22:33N 51°30' E 002°02'1312.7
2014-Sep-21 21:33N 51°40' E 002°14'42812.6
2014-Sep-20 11:33N 57°37' E 009°03'1312.4
2014-Sep-20 10:30N 57°43' E 009°24'1212.5
2014-Sep-20 09:31N 57°48' E 009°46'1312.8
2014-Sep-20 08:32N 57°50' E 010°09'1413.9
2014-Sep-20 07:33N 57°50' E 010°34'1010.3
2014-Sep-20 06:33N 57°43' E 010°49'5 4.4
2014-Sep-20 05:31N 57°40' E 010°42'0 0.1
2014-Sep-20 04:31N 57°40' E 010°42'0 0.1
2014-Sep-20 03:31N 57°40' E 010°43'0 0.2
2014-Sep-20 02:31N 57°40' E 010°42'0 0.0
2014-Sep-20 01:31N 57°40' E 010°42'0 0.1
2014-Sep-20 00:33N 57°40' E 010°42'6 6.0
2014-Sep-19 23:33N 57°37' E 010°51'1212.4
2014-Sep-19 22:33N 57°31' E 011°12'1211.7
2014-Sep-19 21:33N 57°23' E 011°28'1212.3
2014-Sep-19 20:33N 57°12' E 011°36'1212.3
2014-Sep-19 19:33N 57°00' E 011°44'1211.7
2014-Sep-19 18:33N 56°49' E 011°51'10 9.6
2014-Sep-19 17:33N 56°40' E 011°48'1211.7
2014-Sep-19 16:33N 56°30' E 011°37'1211.7
2014-Sep-19 15:33N 56°20' E 011°26'1211.6
2014-Sep-19 14:33N 56°10' E 011°15'1212.0
2014-Sep-19 13:32N 55°59' E 011°03'1111.4
2014-Sep-19 12:33N 55°52' E 010°49'1211.9
2014-Sep-19 11:30N 55°39' E 010°47'3110.5
2014-Sep-19 08:31N 55°09' E 010°59'1111.4
2014-Sep-19 07:33N 54°58' E 010°57'1212.0
2014-Sep-19 06:33N 54°47' E 010°49'1010.0
2014-Sep-19 05:33N 54°38' E 010°56'1212.0
2014-Sep-19 04:33N 54°34' E 011°16'1212.1
2014-Sep-19 03:33N 54°29' E 011°34'1212.0
2014-Sep-19 02:33N 54°26' E 011°54'1110.8
2014-Sep-19 01:33N 54°29' E 012°12'9 9.1
2014-Sep-19 00:33N 54°37' E 012°19'5 5.0
2014-Sep-18 23:33N 54°40' E 012°26'5 5.1
2014-Sep-18 22:33N 54°42' E 012°33'5 5.1
2014-Sep-18 21:33N 54°45' E 012°41'5 5.1
2014-Sep-18 20:33N 54°47' E 012°49'8 8.2
2014-Sep-18 19:33N 54°51' E 013°01'1212.4
2014-Sep-18 18:33N 54°55' E 013°22'1212.5
2014-Sep-18 17:33N 54°59' E 013°42'1312.5
2014-Sep-18 16:33N 55°03' E 014°03'1212.5
2014-Sep-18 15:34N 55°13' E 014°17'1312.8
2014-Sep-18 14:33N 55°23' E 014°31'1212.3
2014-Sep-18 13:33N 55°30' E 014°48'1212.4
2014-Sep-18 12:33N 55°36' E 015°08'1412.4
2014-Sep-18 11:25N 55°40' E 015°32'1112.4
2014-Sep-18 10:34N 55°43' E 015°50'1312.6
2014-Sep-18 09:34N 55°46' E 016°12'1312.6
2014-Sep-18 08:33N 55°49' E 016°33'1312.5
2014-Sep-18 07:33N 55°52' E 016°55'1212.3
2014-Sep-18 06:33N 55°55' E 017°16'1312.5
2014-Sep-18 05:33N 55°58' E 017°38'1312.5
2014-Sep-18 04:31N 56°04' E 017°58'1212.5
2014-Sep-18 03:31N 56°11' E 018°16'1212.5
2014-Sep-18 02:33N 56°18' E 018°34'1312.1
2014-Sep-18 01:31N 56°27' E 018°51'1212.3
2014-Sep-18 00:33N 56°37' E 019°02'1312.7
2014-Sep-17 23:32N 56°44' E 019°22'1312.8
2014-Sep-17 22:32N 56°51' E 019°41'1212.7
2014-Sep-17 21:33N 56°58' E 020°00'1712.9
2014-Sep-17 20:13N 57°08' E 020°26'  
2014-Sep-15 09:28N 59°34' E 022°50'1213.6
2014-Sep-15 08:33N 59°37' E 023°13'1313.4
2014-Sep-15 07:33N 59°41' E 023°38'1313.2
2014-Sep-15 06:33N 59°44' E 024°04'1313.4
2014-Sep-15 05:33N 59°48' E 024°29'1313.4
2014-Sep-15 04:33N 59°50' E 024°55'1413.5
2014-Sep-15 03:33N 59°53' E 025°22'1613.4
2014-Sep-15 02:22N 59°56' E 025°53'1113.2
2014-Sep-15 01:33N 59°59' E 026°14'1313.0
2014-Sep-15 00:33N 60°01' E 026°39'1312.7
2014-Sep-14 23:33N 60°00' E 027°04'1313.3
2014-Sep-14 22:33N 60°07' E 027°27'1413.1
2014-Sep-14 21:29N 60°15' E 027°50'1213.0
2014-Sep-14 20:33N 60°25' E 028°05'9 8.6
2014-Sep-14 19:33N 60°28' E 028°21'  

Dump ship's entire track history